createdAt,value
2023-12-11T00:00:53.572Z,99352.36
2023-12-11T00:03:42.853Z,99347.24
2023-12-11T00:06:14.519Z,99344.34
2023-12-11T00:08:45.589Z,99342.05
2023-12-11T00:11:14.920Z,99338.89
2023-12-11T00:13:46.018Z,99329.96
2023-12-11T00:16:15.937Z,99320.89
2023-12-11T00:18:47.462Z,99318.75
2023-12-11T00:21:18.726Z,99313.80
2023-12-11T00:23:49.955Z,99316.88
2023-12-11T00:26:19.389Z,99311.52
2023-12-11T00:28:50.522Z,99308.95
2023-12-11T00:31:19.936Z,99306.02
2023-12-11T00:33:51.399Z,99298.75
2023-12-11T00:36:22.697Z,99290.96
2023-12-11T00:38:53.901Z,99293.11
2023-12-11T00:41:23.238Z,99285.94
2023-12-11T00:43:54.326Z,99277.33
2023-12-11T00:46:23.957Z,99275.00
2023-12-11T00:48:55.241Z,99272.84
2023-12-11T00:51:26.402Z,99271.84
2023-12-11T00:53:58.473Z,99269.59
2023-12-11T00:56:27.829Z,99269.06
2023-12-11T00:58:58.940Z,99267.89
2023-12-11T01:01:28.378Z,99261.88
2023-12-11T01:03:59.722Z,99262.70
2023-12-11T01:06:30.843Z,99256.05
2023-12-11T01:09:00.584Z,99258.46
2023-12-11T01:11:31.949Z,99253.28
2023-12-11T01:14:03.118Z,99247.01
2023-12-11T01:16:32.458Z,99243.90
2023-12-11T01:19:03.789Z,99244.09
2023-12-11T01:21:35.006Z,99241.19
2023-12-11T01:24:06.040Z,99239.60
2023-12-11T01:26:37.128Z,99236.02
2023-12-11T01:29:06.586Z,99236.98
2023-12-11T01:31:37.634Z,99237.20
2023-12-11T01:34:09.009Z,99229.02
2023-12-11T01:36:40.277Z,99227.71
2023-12-11T01:39:12.083Z,99222.52
2023-12-11T01:41:43.152Z,99221.64
2023-12-11T01:44:12.561Z,99213.98
2023-12-11T01:46:44.262Z,99215.06
2023-12-11T01:49:15.516Z,99208.48
2023-12-11T01:51:47.890Z,99202.56
2023-12-11T01:54:19.172Z,99197.48
2023-12-11T01:56:50.336Z,99190.38
2023-12-11T01:59:19.875Z,99183.91
2023-12-11T02:01:52.843Z,99184.34
2023-12-11T02:04:24.270Z,99180.87
2023-12-11T02:06:55.389Z,99175.77
2023-12-11T02:09:24.970Z,99170.90
2023-12-11T02:11:56.170Z,99169.08
2023-12-11T02:14:27.260Z,99168.52
2023-12-11T02:16:57.080Z,99167.77
2023-12-11T02:19:28.907Z,99165.92
2023-12-11T02:22:00.216Z,99164.42
2023-12-11T02:24:40.780Z,99157.99
2023-12-11T02:27:12.154Z,99152.42
2023-12-11T02:29:41.574Z,99150.89
2023-12-11T02:32:16.057Z,99148.17
2023-12-11T02:34:47.314Z,99145.38
2023-12-11T02:37:18.529Z,99141.94
2023-12-11T02:39:48.241Z,99139.89
2023-12-11T02:42:19.362Z,99132.77
2023-12-11T02:44:48.776Z,99126.88
2023-12-11T02:47:19.862Z,99126.44
2023-12-11T02:49:49.221Z,99119.45
2023-12-11T02:52:20.982Z,99111.61
2023-12-11T02:54:52.181Z,99105.00
2023-12-11T02:57:23.358Z,99104.86
2023-12-11T02:59:54.792Z,99094.33
2023-12-11T03:02:25.849Z,99084.69
2023-12-11T03:04:55.220Z,99080.12
2023-12-11T03:07:26.440Z,99070.64
2023-12-11T03:09:57.599Z,99066.21
2023-12-11T03:12:26.937Z,99055.20
2023-12-11T03:14:58.056Z,99055.60
2023-12-11T03:17:27.509Z,99051.74
2023-12-11T03:19:59.079Z,99045.09
2023-12-11T03:22:30.599Z,99039.74
2023-12-11T03:25:01.746Z,99031.13
2023-12-11T03:27:33.296Z,99029.25
2023-12-11T03:30:05.087Z,99029.91
2023-12-11T03:32:37.274Z,99021.27
2023-12-11T03:35:09.340Z,99021.23
2023-12-11T03:37:40.421Z,99011.61
2023-12-11T03:40:13.454Z,99010.44
2023-12-11T03:42:47.212Z,99007.56
2023-12-11T03:45:18.799Z,98995.14
2023-12-11T03:47:50.284Z,98990.55
2023-12-11T03:50:21.723Z,98985.13
2023-12-11T03:52:54.281Z,98983.52
2023-12-11T03:55:31.883Z,98978.38
2023-12-11T03:58:03.185Z,98974.61
2023-12-11T04:00:34.475Z,98966.63
2023-12-11T04:03:08.425Z,98961.86
2023-12-11T04:05:39.613Z,98956.73
2023-12-11T04:08:10.688Z,98953.66
2023-12-11T04:10:40.064Z,98947.80
2023-12-11T04:13:11.172Z,98947.04
2023-12-11T04:15:40.649Z,98942.56
2023-12-11T04:18:11.815Z,98939.52
2023-12-11T04:20:41.168Z,98934.95
2023-12-11T04:23:12.387Z,98933.11
2023-12-11T04:25:41.781Z,98930.02
2023-12-11T04:28:12.883Z,98928.23
2023-12-11T04:30:42.280Z,98924.10
2023-12-11T04:33:13.492Z,98921.20
2023-12-11T04:35:45.191Z,98924.25
2023-12-11T04:38:16.275Z,98911.15
2023-12-11T04:40:45.626Z,98912.43
2023-12-11T04:43:16.769Z,98903.56
2023-12-11T04:45:46.454Z,98894.64
2023-12-11T04:48:18.322Z,98897.12
2023-12-11T04:50:49.774Z,98899.77
2023-12-11T04:53:20.890Z,98900.52
2023-12-11T04:55:50.396Z,98893.79
2023-12-11T04:58:21.648Z,98889.59
2023-12-11T05:00:52.825Z,98893.00
2023-12-11T05:03:22.157Z,98900.05
2023-12-11T05:05:53.359Z,98891.39
2023-12-11T05:08:23.389Z,98891.03
2023-12-11T05:10:55.249Z,98885.21
2023-12-11T05:13:24.628Z,98890.77
2023-12-11T05:15:55.743Z,98889.18
2023-12-11T05:18:27.222Z,98881.79
2023-12-11T05:20:56.711Z,98875.09
2023-12-11T05:23:27.829Z,98873.27
2023-12-11T05:25:57.175Z,98875.52
2023-12-11T05:28:28.269Z,98878.30
2023-12-11T05:30:57.690Z,98887.10
2023-12-11T05:33:29.028Z,98871.61
2023-12-11T05:36:00.175Z,98870.20
2023-12-11T05:38:29.529Z,98881.09
2023-12-11T05:41:01.334Z,98877.33
2023-12-11T05:43:32.437Z,98870.04
2023-12-11T05:46:01.819Z,98870.09
2023-12-11T05:48:33.104Z,98874.77
2023-12-11T05:51:04.661Z,98874.83
2023-12-11T05:53:35.708Z,98867.89
2023-12-11T05:56:06.166Z,98870.75
2023-12-11T05:58:37.433Z,98868.54
2023-12-11T06:01:08.896Z,98874.93
2023-12-11T06:03:40.162Z,98877.47
2023-12-11T06:06:16.576Z,98869.54
2023-12-11T06:08:47.621Z,98864.02
2023-12-11T06:11:17.080Z,98861.77
2023-12-11T06:13:48.226Z,98854.09
2023-12-11T06:16:20.838Z,98860.45
2023-12-11T06:18:52.123Z,98868.42
2023-12-11T06:21:23.799Z,98870.16
2023-12-11T06:23:54.889Z,98865.14
2023-12-11T06:26:28.576Z,98868.20
2023-12-11T06:28:59.831Z,98868.41
2023-12-11T06:31:31.603Z,98866.63
2023-12-11T06:34:04.115Z,98872.77
2023-12-11T06:36:35.466Z,98874.31
2023-12-11T06:39:06.725Z,98873.92
2023-12-11T06:41:39.195Z,98879.09
2023-12-11T06:44:13.011Z,98881.80
2023-12-11T06:46:45.169Z,98893.39
2023-12-11T06:49:17.623Z,98886.19
2023-12-11T06:51:51.605Z,98892.39
2023-12-11T06:54:44.236Z,98891.27
2023-12-11T06:57:15.450Z,98890.81
2023-12-11T06:59:46.505Z,98889.83
2023-12-11T07:02:17.911Z,98893.20
2023-12-11T07:04:49.232Z,98899.95
2023-12-11T07:07:20.537Z,98903.20
2023-12-11T07:09:52.015Z,98902.89
2023-12-11T07:12:23.377Z,98905.91
2023-12-11T07:14:54.508Z,98905.36
2023-12-11T07:17:23.953Z,98905.04
2023-12-11T07:19:55.128Z,98910.20
2023-12-11T07:22:26.295Z,98916.71
2023-12-11T07:24:57.471Z,98916.60
2023-12-11T07:27:30.296Z,98914.18
2023-12-11T07:30:01.629Z,98919.05
2023-12-11T07:32:32.900Z,98923.64
2023-12-11T07:35:02.477Z,98918.80
2023-12-11T07:37:33.750Z,98926.72
2023-12-11T07:40:07.582Z,98928.11
2023-12-11T07:42:38.908Z,98933.83
2023-12-11T07:45:12.648Z,98936.93
2023-12-11T07:47:43.864Z,98937.29
2023-12-11T07:50:15.133Z,98944.94
2023-12-11T07:52:46.349Z,98940.48
2023-12-11T07:55:17.685Z,98941.71
2023-12-11T07:57:49.195Z,98943.60
2023-12-11T08:00:22.700Z,98938.73
2023-12-11T08:03:29.340Z,98947.06
2023-12-11T08:07:07.256Z,98942.65
2023-12-11T08:09:40.437Z,98935.80
2023-12-11T08:12:11.622Z,98943.63
2023-12-11T08:14:42.895Z,98947.61
2023-12-11T08:17:14.624Z,98944.71
2023-12-11T08:19:45.890Z,98949.05
2023-12-11T08:22:17.101Z,98942.94
2023-12-11T08:24:48.325Z,98941.58
2023-12-11T08:27:19.641Z,98941.55
2023-12-11T08:29:51.199Z,98947.34
2023-12-11T08:32:22.893Z,98949.39
2023-12-11T08:34:54.507Z,98950.80
2023-12-11T08:37:25.655Z,98953.38
2023-12-11T08:39:57.099Z,98955.58
2023-12-11T08:42:28.663Z,98952.59
2023-12-11T08:44:59.854Z,98953.70
2023-12-11T08:47:32.563Z,98955.27
2023-12-11T08:50:07.207Z,98956.81
2023-12-11T08:52:38.826Z,98960.64
2023-12-11T08:55:11.258Z,98963.17
2023-12-11T08:57:44.218Z,98965.80
2023-12-11T09:00:17.252Z,98971.09
2023-12-11T09:02:48.462Z,98971.67
2023-12-11T09:05:20.137Z,98984.55
2023-12-11T09:07:52.286Z,98991.61
2023-12-11T09:10:23.922Z,98986.27
2023-12-11T09:12:56.956Z,98984.09
2023-12-11T09:15:28.314Z,98981.90
2023-12-11T09:17:59.414Z,98975.60
2023-12-11T09:20:30.843Z,98975.01
2023-12-11T09:23:02.026Z,98970.99
2023-12-11T09:25:31.694Z,98969.38
2023-12-11T09:28:02.906Z,98968.61
2023-12-11T09:30:34.081Z,98966.25
2023-12-11T09:33:07.903Z,98963.66
2023-12-11T09:35:40.732Z,98967.84
2023-12-11T09:38:11.887Z,98961.90
2023-12-11T09:40:44.734Z,98961.77
2023-12-11T09:43:18.445Z,98960.80
2023-12-11T09:45:52.281Z,98961.65
2023-12-11T09:48:23.590Z,98959.45
2023-12-11T09:50:54.805Z,98957.85
2023-12-11T09:53:26.279Z,98958.98
2023-12-11T09:55:58.433Z,98954.43
2023-12-11T09:58:29.610Z,98953.35
2023-12-11T10:01:01.090Z,98950.41
2023-12-11T10:03:32.896Z,98950.50
2023-12-11T10:06:04.285Z,98948.36
2023-12-11T10:08:42.413Z,98940.69
2023-12-11T10:11:15.290Z,98941.58
2023-12-11T10:13:47.098Z,98934.73
2023-12-11T10:16:32.865Z,98934.27
2023-12-11T10:19:04.432Z,98930.03
2023-12-11T10:21:40.856Z,98930.48
2023-12-11T10:24:13.853Z,98929.66
2023-12-11T10:26:55.329Z,98932.00
2023-12-11T10:29:27.466Z,98926.23
2023-12-11T10:32:04.618Z,98921.27
2023-12-11T10:34:45.807Z,98922.43
2023-12-11T10:37:17.721Z,98923.30
2023-12-11T10:39:58.874Z,98923.77
2023-12-11T10:42:30.280Z,98925.98
2023-12-11T10:45:03.148Z,98925.25
2023-12-11T10:47:35.164Z,98923.61
2023-12-11T10:50:09.082Z,98919.98
2023-12-11T10:52:42.576Z,98920.98
2023-12-11T10:55:14.565Z,98924.45
2023-12-11T10:57:46.839Z,98924.64
2023-12-11T11:00:20.000Z,98930.02
2023-12-11T11:02:55.663Z,98928.95
2023-12-11T11:05:29.254Z,98932.92
2023-12-11T11:08:10.261Z,98933.94
2023-12-11T11:10:50.620Z,98931.58
2023-12-11T11:13:24.573Z,98934.11
2023-12-11T11:15:56.132Z,98931.20
2023-12-11T11:18:52.826Z,98929.27
2023-12-11T11:21:24.103Z,98926.86
2023-12-11T11:23:55.226Z,98928.10
2023-12-11T11:26:36.214Z,98925.33
2023-12-11T11:29:07.709Z,98921.99
2023-12-11T11:31:53.162Z,98922.37
2023-12-11T11:34:46.500Z,98922.77
2023-12-11T11:42:32.041Z,98926.91
2023-12-11T11:45:05.401Z,98927.06
2023-12-11T11:47:37.354Z,98925.27
2023-12-11T11:50:12.497Z,98927.89
2023-12-11T11:52:43.981Z,98925.88
2023-12-11T11:55:29.214Z,98924.20
2023-12-11T11:58:21.225Z,98919.63
2023-12-11T12:01:03.295Z,98917.24
2023-12-11T12:03:43.338Z,98910.67
2023-12-11T12:06:16.801Z,98914.73
2023-12-11T12:08:48.125Z,98915.23
2023-12-11T12:11:19.562Z,98909.75
2023-12-11T12:13:50.794Z,98906.92
2023-12-11T12:16:30.844Z,98910.02
2023-12-11T12:19:02.268Z,98905.86
2023-12-11T12:21:33.440Z,98905.84
2023-12-11T12:24:06.837Z,98907.97
2023-12-11T12:26:39.477Z,98910.95
2023-12-11T12:29:11.038Z,98910.73
2023-12-11T12:31:42.835Z,98905.45
2023-12-11T12:34:18.827Z,98905.88
2023-12-11T12:36:50.422Z,98907.38
2023-12-11T12:39:22.210Z,98907.15
2023-12-11T12:41:55.438Z,98907.33
2023-12-11T12:44:26.748Z,98904.61
2023-12-11T12:47:02.045Z,98902.52
2023-12-11T12:49:33.740Z,98900.84
2023-12-11T12:52:05.158Z,98899.92
2023-12-11T12:54:51.629Z,98903.39
2023-12-11T12:57:22.840Z,98902.48
2023-12-11T12:59:55.605Z,98909.48
2023-12-11T13:02:26.818Z,98906.55
2023-12-11T13:04:58.575Z,98906.36
2023-12-11T13:07:30.013Z,98910.92
2023-12-11T13:10:10.480Z,98907.91
2023-12-11T13:12:41.599Z,98909.27
2023-12-11T13:15:11.080Z,98912.30
2023-12-11T13:17:42.325Z,98910.69
2023-12-11T13:20:15.056Z,98909.85
2023-12-11T13:22:46.196Z,98910.42
2023-12-11T13:25:17.898Z,98910.16
2023-12-11T13:27:49.247Z,98910.00
2023-12-11T13:30:18.605Z,98914.44
2023-12-11T13:32:49.722Z,98909.77
2023-12-11T13:35:21.617Z,98917.27
2023-12-11T13:37:52.732Z,98912.66
2023-12-11T13:40:24.483Z,98912.23
2023-12-11T13:42:55.825Z,98907.41
2023-12-11T13:45:27.019Z,98903.31
2023-12-11T13:47:56.395Z,98908.25
2023-12-11T13:50:27.598Z,98907.88
2023-12-11T13:52:58.812Z,98907.98
2023-12-11T13:55:37.399Z,98906.14
2023-12-11T13:58:08.558Z,98905.55
2023-12-11T14:00:39.851Z,98905.08
2023-12-11T14:03:11.198Z,98906.79
2023-12-11T14:05:42.725Z,98904.30
2023-12-11T14:08:13.968Z,98908.10
2023-12-11T14:10:45.352Z,98906.34
2023-12-11T14:13:16.480Z,98907.01
2023-12-11T14:15:49.111Z,98901.33
2023-12-11T14:18:20.176Z,98902.45
2023-12-11T14:20:49.717Z,98903.88
2023-12-11T14:23:20.817Z,98900.21
2023-12-11T14:25:50.152Z,98899.89
2023-12-11T14:28:21.280Z,98904.95
2023-12-11T14:30:52.439Z,98906.89
2023-12-11T14:33:21.823Z,98908.69
2023-12-11T14:35:53.312Z,98907.59
2023-12-11T14:38:24.867Z,98910.21
2023-12-11T14:40:55.961Z,98912.89
2023-12-11T14:43:25.590Z,98920.28
2023-12-11T14:45:59.805Z,98922.02
2023-12-11T14:48:30.816Z,98922.89
2023-12-11T14:51:00.287Z,98917.90
2023-12-11T14:53:31.941Z,98916.40
2023-12-11T14:56:04.262Z,98920.46
2023-12-11T14:58:35.469Z,98916.36
2023-12-11T15:01:07.197Z,98918.10
2023-12-11T15:03:38.729Z,98915.20
2023-12-11T15:06:11.202Z,98913.94
2023-12-11T15:08:42.240Z,98921.98
2023-12-11T15:11:11.604Z,98924.75
2023-12-11T15:13:42.681Z,98930.09
2023-12-11T15:16:14.421Z,98926.86
2023-12-11T15:18:46.795Z,98909.30
2023-12-11T15:21:19.669Z,98931.34
2023-12-11T15:23:50.687Z,98940.14
2023-12-11T15:26:20.635Z,98937.20
2023-12-11T15:28:51.802Z,98936.64
2023-12-11T15:31:26.597Z,98927.73
2023-12-11T15:33:58.739Z,98933.70
2023-12-11T15:36:29.924Z,98942.60
2023-12-11T15:39:01.156Z,98939.55
2023-12-11T15:41:30.490Z,98938.28
2023-12-11T15:44:01.739Z,98939.19
2023-12-11T15:46:33.116Z,98935.78
2023-12-11T15:49:04.288Z,98935.48
2023-12-11T15:51:35.441Z,98933.95
2023-12-11T15:54:08.548Z,98931.00
2023-12-11T15:56:39.600Z,98926.77
2023-12-11T15:59:08.909Z,98932.20
2023-12-11T16:01:40.215Z,98934.73
2023-12-11T16:04:11.485Z,98930.92
2023-12-11T16:06:44.096Z,98932.13
2023-12-11T16:09:15.175Z,98932.87
2023-12-11T16:11:47.814Z,98923.55
2023-12-11T16:14:18.915Z,98927.63
2023-12-11T16:16:48.313Z,98919.70
2023-12-11T16:19:30.182Z,98922.54
2023-12-11T16:22:01.501Z,98914.71
2023-12-11T16:24:32.657Z,98912.36
2023-12-11T16:27:01.992Z,98907.55
2023-12-11T16:29:34.732Z,98909.77
2023-12-11T16:32:08.039Z,98910.36
2023-12-11T16:34:39.144Z,98907.60
2023-12-11T16:37:11.063Z,98908.08
2023-12-11T16:39:44.980Z,98909.30
2023-12-11T16:42:16.158Z,98907.81
2023-12-11T16:44:49.307Z,98909.59
2023-12-11T16:47:21.541Z,98907.77
2023-12-11T16:50:01.156Z,98905.63
2023-12-11T16:52:38.442Z,98904.31
2023-12-11T16:55:10.076Z,98903.53
2023-12-11T16:57:41.298Z,98902.86
2023-12-11T17:00:14.411Z,98907.09
2023-12-11T17:02:45.716Z,98910.02
2023-12-11T17:05:17.152Z,98904.86
2023-12-11T17:07:48.421Z,98903.58
2023-12-11T17:10:17.849Z,98898.20
2023-12-11T17:12:49.014Z,98899.66
2023-12-11T17:15:20.839Z,98898.60
2023-12-11T17:17:52.503Z,98893.13
2023-12-11T17:20:23.708Z,98894.48
2023-12-11T17:22:53.072Z,98893.34
2023-12-11T17:25:24.128Z,98892.31
2023-12-11T17:27:55.898Z,98889.14
2023-12-11T17:30:26.952Z,98886.21
2023-12-11T17:32:56.396Z,98888.43
2023-12-11T17:35:27.610Z,98887.65
2023-12-11T17:37:58.755Z,98886.90
2023-12-11T17:40:30.597Z,98884.22
2023-12-11T17:43:01.930Z,98881.02
2023-12-11T17:45:33.489Z,98889.05
2023-12-11T17:48:05.257Z,98886.88
2023-12-11T17:50:37.791Z,98888.84
2023-12-11T17:53:09.406Z,98887.16
2023-12-11T17:55:40.982Z,98892.94
2023-12-11T17:58:20.288Z,98889.41
2023-12-11T18:01:15.797Z,98892.20
2023-12-11T18:04:06.603Z,98888.27
2023-12-11T18:10:05.502Z,98894.84
2023-12-11T18:13:01.390Z,98893.02
2023-12-11T18:15:46.562Z,98891.75
2023-12-11T18:18:17.774Z,98896.87
2023-12-11T18:20:47.165Z,98895.07
2023-12-11T18:23:18.203Z,98895.01
2023-12-11T18:25:47.590Z,98894.20
2023-12-11T18:28:21.066Z,98894.07
2023-12-11T18:30:52.223Z,98890.77
2023-12-11T18:33:24.673Z,98889.55
2023-12-11T18:35:56.091Z,98892.05
2023-12-11T18:38:27.181Z,98896.41
2023-12-11T18:40:56.533Z,98900.80
2023-12-11T18:43:27.975Z,98903.48
2023-12-11T18:45:59.152Z,98905.70
2023-12-11T18:48:43.650Z,98907.40
2023-12-11T18:54:54.446Z,98915.29
2023-12-11T18:57:23.844Z,98913.20
2023-12-11T18:59:55.086Z,98911.02
2023-12-11T19:02:27.149Z,98913.41
2023-12-11T19:04:58.605Z,98913.64
2023-12-11T19:07:30.102Z,98912.85
2023-12-11T19:10:29.513Z,98915.02
2023-12-11T19:12:53.424Z,98914.01
2023-12-11T19:15:24.796Z,98917.73
2023-12-11T19:17:56.036Z,98918.05
2023-12-11T19:20:27.211Z,98927.30
2023-12-11T19:22:56.681Z,98927.66
2023-12-11T19:25:27.912Z,98926.48
2023-12-11T19:28:01.940Z,98926.80
2023-12-11T19:30:34.219Z,98925.96
2023-12-11T19:33:06.445Z,98929.27
2023-12-11T19:35:38.127Z,98931.42
2023-12-11T19:38:09.227Z,98931.74
2023-12-11T19:40:42.659Z,98938.40
2023-12-11T19:43:14.548Z,98941.73
2023-12-11T19:45:48.608Z,98947.45
2023-12-11T19:48:20.252Z,98953.62
2023-12-11T19:50:51.349Z,98961.70
2023-12-11T19:53:20.654Z,98963.70
2023-12-11T19:55:51.718Z,98969.48
2023-12-11T19:58:21.565Z,98971.60
2023-12-11T20:00:53.522Z,98975.98
2023-12-11T20:03:25.352Z,98979.88
2023-12-11T20:05:56.493Z,98979.92
2023-12-11T20:08:27.734Z,98985.25
2023-12-11T20:10:58.921Z,98988.77
2023-12-11T20:13:28.680Z,98993.52
2023-12-11T20:16:00.268Z,99000.87
2023-12-11T20:18:32.095Z,98997.86
2023-12-11T20:21:05.437Z,99002.27
2023-12-11T20:23:37.334Z,99000.31
2023-12-11T20:26:10.135Z,99003.55
2023-12-11T20:28:41.329Z,99003.70
2023-12-11T20:31:16.551Z,99007.20
2023-12-11T20:33:49.652Z,99016.80
2023-12-11T20:36:21.463Z,99018.55
2023-12-11T20:38:52.508Z,99023.52
2023-12-11T20:41:22.597Z,99026.88
2023-12-11T20:43:56.837Z,99033.64
2023-12-11T20:46:28.209Z,99034.73
2023-12-11T20:48:59.766Z,99037.90
2023-12-11T20:51:31.058Z,99047.27
2023-12-11T20:54:07.357Z,99054.11
2023-12-11T20:57:15.910Z,99062.94
2023-12-11T21:00:34.006Z,99065.38
2023-12-11T21:04:35.436Z,99064.74
2023-12-11T21:07:25.106Z,99068.73
2023-12-11T21:09:32.796Z,99071.31
2023-12-11T21:12:04.339Z,99073.89
2023-12-11T21:14:35.352Z,99080.05
2023-12-11T21:17:30.263Z,99082.19
2023-12-11T21:19:56.597Z,99084.35
2023-12-11T21:25:41.237Z,99089.45
2023-12-11T21:31:50.873Z,99090.67
2023-12-11T21:34:57.748Z,99097.08
2023-12-11T21:37:59.936Z,99098.58
2023-12-11T21:40:31.143Z,99100.55
2023-12-11T21:43:02.351Z,99105.71
2023-12-11T21:45:33.559Z,99107.63
2023-12-11T21:48:02.979Z,99111.17
2023-12-11T21:50:34.229Z,99115.96
2023-12-11T21:53:05.401Z,99119.30
2023-12-11T21:55:36.495Z,99123.09
2023-12-11T21:58:05.804Z,99126.00
2023-12-11T22:00:38.644Z,99131.89
2023-12-11T22:03:09.755Z,99136.59
2023-12-11T22:05:40.943Z,99137.44
2023-12-11T22:08:12.249Z,99139.59
2023-12-11T22:10:48.393Z,99143.77
2023-12-11T22:13:27.364Z,99147.88
2023-12-11T22:15:59.148Z,99152.85
2023-12-11T22:18:30.661Z,99153.48
2023-12-11T22:21:02.327Z,99163.02
2023-12-11T22:23:33.501Z,99169.17
2023-12-11T22:26:03.067Z,99169.73
2023-12-11T22:28:34.273Z,99175.95
2023-12-11T22:31:07.396Z,99175.98
2023-12-11T22:33:38.631Z,99177.84
2023-12-11T22:36:20.380Z,99181.84
2023-12-11T22:38:51.432Z,99185.20
2023-12-11T22:41:27.821Z,99185.58
2023-12-11T22:43:58.930Z,99187.88
2023-12-11T22:46:30.397Z,99189.59
2023-12-11T22:49:01.590Z,99191.98
2023-12-11T22:51:32.891Z,99192.48
2023-12-11T22:54:04.039Z,99201.05
2023-12-11T22:56:35.129Z,99202.51
2023-12-11T22:59:04.505Z,99200.27
2023-12-11T23:02:47.929Z,99202.78
2023-12-11T23:05:19.790Z,99206.52
2023-12-11T23:07:51.101Z,99206.87
2023-12-11T23:10:21.017Z,99207.08
2023-12-11T23:12:53.567Z,99205.95
2023-12-11T23:15:22.912Z,99209.19
2023-12-11T23:17:54.022Z,99213.52
2023-12-11T23:20:23.402Z,99212.96
2023-12-11T23:22:55.105Z,99216.55
2023-12-11T23:25:26.300Z,99220.23
2023-12-11T23:27:57.443Z,99222.44
2023-12-11T23:30:28.531Z,99226.70
2023-12-11T23:32:58.068Z,99226.69
2023-12-11T23:35:29.472Z,99237.11
2023-12-11T23:38:01.337Z,99237.34
2023-12-11T23:40:32.464Z,99243.02
2023-12-11T23:43:01.841Z,99248.20
2023-12-11T23:45:33.043Z,99245.63
2023-12-11T23:48:02.430Z,99249.98
2023-12-11T23:50:33.690Z,99248.19
2023-12-11T23:53:05.182Z,99254.69
2023-12-11T23:55:36.574Z,99254.73
2023-12-11T23:58:07.903Z,99254.80
